Time;durP1;ratioP1;P1;durP2;ratioP2;P2;SDS_P1;SDS_P2;PMS_P1;PMS_P2;Temp;Humidity;BMP_temperature;BMP_pressure;BME280_temperature;BME280_humidity;BME280_pressure;Samples;Min_cycle;Max_cycle;Signal;HPM_P1;HPM_P2
2022/12/05 00:00:00;;;;;;;20.40;18.20;;;3.30;99.50;;;;;;5024282;28;20443;-73
2022/12/05 00:02:26;;;;;;;21.80;19.60;;;3.40;99.70;;;;;;5020283;28;20450;-73
2022/12/05 00:04:53;;;;;;;22.77;20.38;;;3.40;99.80;;;;;;5026209;28;20514;-73
2022/12/05 00:07:21;;;;;;;22.20;19.90;;;3.40;99.70;;;;;;5029341;28;20445;-72
2022/12/05 00:09:49;;;;;;;22.60;20.30;;;3.40;99.80;;;;;;5027786;28;20505;-73
2022/12/05 00:12:16;;;;;;;22.33;19.92;;;3.40;99.90;;;;;;5027427;28;20531;-73
2022/12/05 00:14:43;;;;;;;23.10;20.70;;;3.40;99.90;;;;;;5027745;28;20423;-72
2022/12/05 00:17:09;;;;;;;22.42;20.13;;;3.40;99.90;;;;;;5031403;28;20419;-72
2022/12/05 00:19:36;;;;;;;23.35;20.65;;;3.40;99.90;;;;;;5030525;28;20418;-72
2022/12/05 00:22:03;;;;;;;23.83;21.33;;;3.40;99.90;;;;;;5029374;28;20427;-72
2022/12/05 00:24:31;;;;;;;22.10;19.60;;;3.40;99.90;;;;;;5029649;28;20450;-72
2022/12/05 00:26:58;;;;;;;23.80;21.40;;;3.40;99.90;;;;;;5054365;22;22458;-76
2022/12/05 00:29:25;;;;;;;24.02;21.52;;;3.40;99.90;;;;;;5047021;28;20546;-76
2022/12/05 00:31:51;;;;;;;24.90;21.60;;;3.40;99.90;;;;;;5047422;28;20463;-76
2022/12/05 00:34:18;;;;;;;22.48;20.08;;;3.40;99.90;;;;;;5044404;28;20440;-77
2022/12/05 00:36:45;;;;;;;23.23;20.75;;;3.40;99.90;;;;;;5048040;28;20429;-78
2022/12/05 00:39:14;;;;;;;24.40;21.70;;;3.40;99.90;;;;;;5027094;28;20456;-78
2022/12/05 00:41:43;;;;;;;24.13;21.63;;;3.40;99.90;;;;;;5028023;28;20419;-77
2022/12/05 00:44:12;;;;;;;25.07;22.47;;;3.40;99.90;;;;;;5027967;28;20411;-77
2022/12/05 00:46:39;;;;;;;24.73;22.02;;;3.40;99.90;;;;;;5018090;28;20878;-78
2022/12/05 00:49:07;;;;;;;25.63;22.80;;;3.40;99.90;;;;;;5023276;28;20415;-78
2022/12/05 00:51:36;;;;;;;24.97;22.27;;;3.40;99.90;;;;;;5017909;28;20529;-76
2022/12/05 00:54:05;;;;;;;24.42;21.83;;;3.40;99.90;;;;;;5028728;28;20429;-77
2022/12/05 00:56:32;;;;;;;25.02;22.33;;;3.50;99.90;;;;;;5027269;28;20423;-77
2022/12/05 00:59:01;;;;;;;24.55;21.92;;;3.50;99.90;;;;;;5028255;28;20435;-77
2022/12/05 01:01:31;;;;;;;24.98;22.38;;;3.50;99.90;;;;;;5028170;28;20423;-77
2022/12/05 01:03:59;;;;;;;23.27;20.83;;;3.50;99.90;;;;;;5019816;28;20921;-77
2022/12/05 01:06:27;;;;;;;22.58;20.20;;;3.50;99.90;;;;;;5022291;28;20434;-78
2022/12/05 01:08:55;;;;;;;23.85;21.25;;;3.40;99.90;;;;;;5026946;28;20437;-78
2022/12/05 01:11:23;;;;;;;23.70;21.20;;;3.40;99.90;;;;;;5025139;28;20434;-74
2022/12/05 01:13:50;;;;;;;22.48;20.23;;;3.40;99.90;;;;;;5025949;28;20446;-75
2022/12/05 01:16:21;;;;;;;23.35;20.88;;;3.40;99.90;;;;;;5026105;28;20419;-75
2022/12/05 01:18:48;;;;;;;23.58;21.15;;;3.40;99.90;;;;;;5027243;28;20438;-75
2022/12/05 01:21:15;;;;;;;22.10;19.67;;;3.40;99.90;;;;;;5020505;28;20942;-74
2022/12/05 01:23:41;;;;;;;22.73;20.30;;;3.40;99.90;;;;;;5019170;28;20448;-75
2022/12/05 01:26:11;;;;;;;23.40;20.50;;;3.40;99.90;;;;;;5023187;28;20446;-75
2022/12/05 01:28:39;;;;;;;22.58;20.17;;;3.40;99.90;;;;;;5025524;28;20426;-74
2022/12/05 01:31:08;;;;;;;22.07;19.87;;;3.40;99.90;;;;;;5021951;28;20430;-75
2022/12/05 01:33:36;;;;;;;24.25;21.45;;;3.40;99.90;;;;;;5030231;28;20441;-75
2022/12/05 01:36:04;;;;;;;23.15;20.65;;;3.40;99.90;;;;;;5025889;28;20431;-74
2022/12/05 01:38:30;;;;;;;22.65;20.33;;;3.40;99.90;;;;;;5026304;28;20431;-74
2022/12/05 01:41:01;;;;;;;21.95;19.75;;;3.40;99.90;;;;;;5026428;28;20419;-74
2022/12/05 01:43:28;;;;;;;21.13;18.95;;;3.40;99.80;;;;;;5021780;28;20514;-75
2022/12/05 01:45:56;;;;;;;22.45;20.05;;;3.40;99.70;;;;;;5025235;28;20415;-75
2022/12/05 01:48:25;;;;;;;23.05;20.65;;;3.40;99.80;;;;;;5025247;28;20454;-75
2022/12/05 01:50:54;;;;;;;21.48;19.20;;;3.40;99.80;;;;;;5018878;28;20436;-75
2022/12/05 01:53:22;;;;;;;21.92;19.63;;;3.40;99.90;;;;;;5025642;28;20445;-75
2022/12/05 01:55:50;;;;;;;21.77;19.48;;;3.40;99.90;;;;;;5027538;28;20521;-74
2022/12/05 01:58:18;;;;;;;24.98;21.98;;;3.40;99.90;;;;;;5023851;28;21102;-75
2022/12/05 02:00:46;;;;;;;22.63;20.23;;;3.40;99.90;;;;;;5025229;28;20431;-75
2022/12/05 02:03:17;;;;;;;23.30;20.33;;;3.40;99.90;;;;;;5014705;28;20471;-75
2022/12/05 02:05:47;;;;;;;22.80;20.00;;;3.40;99.90;;;;;;5028202;28;20584;-75
2022/12/05 02:08:15;;;;;;;22.77;20.25;;;3.40;99.90;;;;;;5027834;28;21142;-74
2022/12/05 02:10:45;;;;;;;24.92;20.30;;;3.40;99.90;;;;;;5014905;28;20951;-74
2022/12/05 02:13:33;;;;;;;22.80;20.20;;;3.40;99.90;;;;;;5025520;28;20434;-75
2022/12/05 02:16:04;;;;;;;24.90;21.08;;;3.30;99.90;;;;;;5025941;28;20431;-75
2022/12/05 02:18:46;;;;;;;21.65;19.13;;;3.30;99.90;;;;;;5024794;28;20778;-75
2022/12/05 02:21:36;;;;;;;22.83;20.00;;;3.30;99.90;;;;;;5016620;28;20473;-75
2022/12/05 02:24:41;;;;;;;24.27;20.60;;;3.30;99.90;;;;;;5024852;28;20427;-74
2022/12/05 02:27:22;;;;;;;23.15;19.55;;;3.30;99.90;;;;;;5030057;28;20464;-76
2022/12/05 02:30:05;;;;;;;22.80;19.77;;;3.30;99.90;;;;;;5020461;28;20431;-75
2022/12/05 02:32:42;;;;;;;23.02;19.90;;;3.20;99.90;;;;;;5029223;28;20439;-75
2022/12/05 02:35:21;;;;;;;22.85;20.00;;;3.20;99.90;;;;;;5024643;28;20430;-75
2022/12/05 02:37:54;;;;;;;24.27;21.10;;;3.10;99.90;;;;;;5022525;28;20429;-75
2022/12/05 02:40:27;;;;;;;23.33;19.80;;;3.10;99.90;;;;;;5032961;28;20546;-76
2022/12/05 02:42:59;;;;;;;21.55;19.08;;;3.10;99.90;;;;;;5020163;28;20465;-75
2022/12/05 02:45:30;;;;;;;23.13;20.25;;;3.10;99.90;;;;;;5025106;28;20490;-75
2022/12/05 02:47:59;;;;;;;24.90;21.10;;;3.10;99.90;;;;;;5024725;28;20418;-75
2022/12/05 02:50:32;;;;;;;25.30;21.55;;;3.10;99.90;;;;;;5026473;28;20434;-75
2022/12/05 02:53:03;;;;;;;24.60;20.52;;;3.10;99.90;;;;;;5025594;28;20846;-76
2022/12/05 02:55:32;;;;;;;22.73;19.65;;;3.10;99.90;;;;;;5025111;28;20437;-76
2022/12/05 02:58:03;;;;;;;23.02;20.23;;;3.10;99.90;;;;;;5025391;28;20418;-76
2022/12/05 03:00:31;;;;;;;24.35;20.80;;;3.00;99.90;;;;;;5025196;28;20415;-76
2022/12/05 03:03:00;;;;;;;25.50;20.58;;;3.00;99.90;;;;;;5024566;28;20782;-76
2022/12/05 03:05:38;;;;;;;22.15;19.63;;;3.00;99.90;;;;;;5013612;28;20431;-76
2022/12/05 03:08:08;;;;;;;22.27;19.58;;;3.00;99.90;;;;;;5025608;28;20793;-76
2022/12/05 03:10:38;;;;;;;23.10;20.13;;;2.90;99.90;;;;;;5018099;28;20789;-77
2022/12/05 03:13:10;;;;;;;24.45;21.52;;;2.90;99.90;;;;;;5024845;28;21088;-76
2022/12/05 03:15:41;;;;;;;24.00;21.40;;;2.90;99.90;;;;;;5028950;28;20533;-76
2022/12/05 03:18:15;;;;;;;24.30;21.70;;;2.80;99.90;;;;;;5025508;28;20419;-76
2022/12/05 03:20:48;;;;;;;25.05;21.75;;;2.80;99.90;;;;;;5023808;28;20535;-76
2022/12/05 03:23:20;;;;;;;23.10;20.08;;;2.80;99.90;;;;;;5014339;28;20787;-75
2022/12/05 03:25:54;;;;;;;23.80;19.65;;;2.90;99.90;;;;;;5014570;28;21083;-76
2022/12/05 03:28:24;;;;;;;24.27;20.10;;;2.80;99.90;;;;;;5025154;28;20433;-76
2022/12/05 03:30:56;;;;;;;22.38;19.98;;;2.80;99.90;;;;;;5024944;28;20434;-76
2022/12/05 03:33:26;;;;;;;23.83;19.80;;;2.80;99.90;;;;;;5027207;28;20441;-75
2022/12/05 03:36:01;;;;;;;22.10;19.25;;;2.80;99.90;;;;;;5025719;28;20453;-76
2022/12/05 03:38:32;;;;;;;23.80;19.63;;;2.80;99.90;;;;;;5025069;28;20430;-77
2022/12/05 03:41:08;;;;;;;23.83;20.08;;;2.70;99.90;;;;;;5025126;28;20411;-77
2022/12/05 03:43:41;;;;;;;25.30;20.00;;;2.70;99.90;;;;;;5025218;28;20419;-76
2022/12/05 03:46:13;;;;;;;22.92;20.17;;;2.70;99.90;;;;;;5021201;28;20442;-76
2022/12/05 03:48:49;;;;;;;24.27;20.70;;;2.70;99.90;;;;;;5023051;28;20758;-76
2022/12/05 03:51:19;;;;;;;25.15;20.75;;;2.70;99.90;;;;;;5021234;28;20488;-77
2022/12/05 03:53:50;;;;;;;23.60;19.30;;;2.60;99.90;;;;;;5024603;28;20802;-76
2022/12/05 03:56:20;;;;;;;20.30;18.05;;;2.60;99.90;;;;;;5025338;28;20457;-77
2022/12/05 03:58:52;;;;;;;19.70;16.85;;;2.60;99.90;;;;;;5026035;28;20434;-77
2022/12/05 04:01:23;;;;;;;19.65;16.30;;;2.50;99.90;;;;;;5025011;28;20790;-77
2022/12/05 04:03:55;;;;;;;19.52;16.95;;;2.50;99.90;;;;;;5026088;28;20483;-77
2022/12/05 04:06:27;;;;;;;20.33;17.73;;;2.40;99.90;;;;;;5026388;28;20758;-75
2022/12/05 04:08:58;;;;;;;20.10;17.70;;;2.30;99.90;;;;;;5026196;28;20423;-76
2022/12/05 04:11:30;;;;;;;21.55;18.05;;;2.30;99.90;;;;;;5026306;28;20423;-76
2022/12/05 04:14:01;;;;;;;20.23;17.00;;;2.20;99.90;;;;;;5025257;28;20430;-76
2022/12/05 04:19:26;;;;;;;22.30;18.20;;;2.10;99.90;;;;;;5025660;28;20423;-77
2022/12/05 04:21:54;;;;;;;22.40;18.58;;;2.10;99.90;;;;;;5025884;28;20411;-76
2022/12/05 04:27:20;;;;;;;22.90;18.60;;;2.10;99.90;;;;;;5038126;28;20429;-76
2022/12/05 04:29:54;;;;;;;19.98;17.20;;;2.00;99.90;;;;;;5041211;28;20495;-76
2022/12/05 04:32:26;;;;;;;18.85;16.75;;;2.00;99.90;;;;;;5040983;28;20524;-75
2022/12/05 04:34:58;;;;;;;21.93;19.33;;;2.00;99.90;;;;;;5036419;28;20522;-75
2022/12/05 04:37:30;;;;;;;25.58;20.80;;;2.00;99.90;;;;;;5033623;28;20460;-75
2022/12/05 04:40:01;;;;;;;22.27;19.30;;;2.00;99.90;;;;;;5026800;28;20426;-77
2022/12/05 04:42:31;;;;;;;23.67;20.35;;;2.00;99.90;;;;;;5026070;28;20433;-76
2022/12/05 04:45:02;;;;;;;22.23;19.83;;;2.00;99.90;;;;;;5032305;28;20419;-74
2022/12/05 04:47:34;;;;;;;20.83;18.63;;;1.90;99.90;;;;;;5041202;28;20444;-75
2022/12/05 04:50:03;;;;;;;20.63;17.90;;;2.00;99.90;;;;;;5044161;28;20435;-74
2022/12/05 04:52:31;;;;;;;21.27;17.70;;;2.00;99.90;;;;;;5025359;28;20437;-75
2022/12/05 04:55:03;;;;;;;19.83;17.13;;;2.00;99.90;;;;;;5027518;28;20614;-77
2022/12/05 04:57:37;;;;;;;19.83;17.75;;;1.90;99.90;;;;;;5024354;28;20944;-76
2022/12/05 05:00:04;;;;;;;19.05;16.05;;;2.00;99.90;;;;;;5028553;28;20459;-76
2022/12/05 05:02:37;;;;;;;18.25;16.35;;;2.00;99.90;;;;;;5026594;28;20442;-77
2022/12/05 05:05:09;;;;;;;22.48;20.13;;;2.00;99.90;;;;;;5029661;28;20537;-77
2022/12/05 05:07:44;;;;;;;17.88;15.98;;;2.00;99.90;;;;;;5037767;28;20427;-77
2022/12/05 05:10:15;;;;;;;18.55;16.55;;;1.90;99.90;;;;;;5028207;28;20429;-77
2022/12/05 05:12:41;;;;;;;17.10;15.30;;;1.90;99.90;;;;;;5029265;28;20419;-77
2022/12/05 05:15:09;;;;;;;17.92;16.02;;;1.90;99.90;;;;;;5030034;28;20437;-77
2022/12/05 05:17:37;;;;;;;17.60;15.70;;;1.90;99.90;;;;;;5033756;28;20457;-76
2022/12/05 05:22:48;;;;;;;17.98;16.08;;;1.80;99.90;;;;;;5022502;28;20577;-76
2022/12/05 05:25:15;;;;;;;18.13;16.23;;;1.80;99.90;;;;;;5019775;28;20441;-78
2022/12/05 05:27:41;;;;;;;18.13;15.45;;;1.80;99.90;;;;;;5028809;28;20437;-77
2022/12/05 05:30:09;;;;;;;18.60;16.40;;;1.80;99.90;;;;;;5020047;28;20435;-76
2022/12/05 05:32:37;;;;;;;17.38;15.65;;;1.80;99.90;;;;;;5034049;28;20423;-77
2022/12/05 05:35:04;;;;;;;19.05;16.27;;;1.80;99.90;;;;;;5045195;28;20464;-77
2022/12/05 05:37:31;;;;;;;19.70;16.55;;;1.80;99.90;;;;;;5042749;28;20443;-78
2022/12/05 05:39:57;;;;;;;18.08;16.27;;;1.80;99.90;;;;;;5038493;28;20434;-76
2022/12/05 05:42:24;;;;;;;19.13;17.15;;;1.80;99.90;;;;;;5033512;28;20419;-77
2022/12/05 05:44:51;;;;;;;18.45;16.30;;;1.80;99.90;;;;;;5032877;28;20466;-77
2022/12/05 05:47:18;;;;;;;17.77;15.85;;;1.80;99.90;;;;;;5028504;28;20438;-76
2022/12/05 05:49:46;;;;;;;18.52;15.88;;;1.80;99.90;;;;;;5027908;28;20494;-76
2022/12/05 05:52:12;;;;;;;17.98;16.10;;;1.70;99.90;;;;;;5036965;28;20441;-76
2022/12/05 05:54:39;;;;;;;19.83;16.08;;;1.80;99.90;;;;;;5038396;28;20438;-76
2022/12/05 05:57:06;;;;;;;18.17;16.27;;;1.70;99.90;;;;;;5040928;28;20449;-77
2022/12/05 05:59:33;;;;;;;17.77;15.98;;;1.70;99.90;;;;;;5039867;28;20453;-76
2022/12/05 06:02:00;;;;;;;18.33;16.10;;;1.80;99.90;;;;;;5034594;28;20432;-78
2022/12/05 06:04:27;;;;;;;17.27;15.45;;;1.80;99.90;;;;;;5039341;28;20463;-80
2022/12/05 06:06:56;;;;;;;17.60;15.80;;;1.80;99.90;;;;;;5046437;28;20482;-78
2022/12/05 06:09:22;;;;;;;17.73;15.48;;;1.80;99.90;;;;;;5036352;28;20513;-78
2022/12/05 06:11:49;;;;;;;19.40;17.30;;;1.80;99.90;;;;;;5030325;28;20447;-75
2022/12/05 06:14:16;;;;;;;17.60;15.70;;;1.90;99.90;;;;;;5034835;28;20415;-75
2022/12/05 06:16:43;;;;;;;16.67;14.98;;;1.90;99.90;;;;;;5025851;28;20443;-75
2022/12/05 06:19:09;;;;;;;19.58;17.50;;;1.90;99.90;;;;;;5025221;28;20897;-76
2022/12/05 06:21:36;;;;;;;19.02;17.10;;;1.90;99.90;;;;;;5034331;28;20432;-77
2022/12/05 06:24:05;;;;;;;17.90;16.10;;;1.90;99.90;;;;;;5020365;28;20456;-77
2022/12/05 06:26:32;;;;;;;16.42;14.82;;;1.90;99.90;;;;;;5030228;28;20440;-77
2022/12/05 06:28:58;;;;;;;17.13;15.43;;;1.90;99.90;;;;;;5034082;28;20442;-76
2022/12/05 06:31:29;;;;;;;17.50;15.70;;;1.90;99.90;;;;;;5032960;28;20457;-76
2022/12/05 06:34:00;;;;;;;16.50;14.90;;;1.90;99.90;;;;;;5031049;28;20447;-75
2022/12/05 06:36:27;;;;;;;17.35;15.65;;;1.90;99.90;;;;;;5028573;28;20435;-77
2022/12/05 06:38:54;;;;;;;17.60;15.85;;;1.90;99.90;;;;;;5026137;28;20510;-75
2022/12/05 06:41:23;;;;;;;17.00;15.30;;;1.90;99.90;;;;;;5025106;28;20423;-76
2022/12/05 06:43:52;;;;;;;19.20;17.20;;;1.90;99.90;;;;;;5032870;28;20549;-75
2022/12/05 06:46:20;;;;;;;19.60;17.70;;;1.90;99.90;;;;;;5029191;28;20422;-76
2022/12/05 06:48:46;;;;;;;19.15;17.25;;;1.90;99.90;;;;;;5032091;28;20513;-75
2022/12/05 06:51:16;;;;;;;19.00;17.10;;;2.00;99.90;;;;;;5018440;28;20530;-75
2022/12/05 06:53:43;;;;;;;19.70;17.60;;;2.00;99.90;;;;;;5023714;28;20439;-75
2022/12/05 06:56:12;;;;;;;19.70;17.70;;;2.00;99.90;;;;;;5018503;28;20439;-76
2022/12/05 06:58:40;;;;;;;19.35;17.35;;;2.00;99.90;;;;;;5014992;28;20440;-76
2022/12/05 07:03:56;;;;;;;20.47;18.50;;;2.00;99.90;;;;;;5015767;28;20467;-76
2022/12/05 07:06:23;;;;;;;19.10;17.20;;;2.00;99.90;;;;;;5015448;28;20747;-76
2022/12/05 07:08:50;;;;;;;20.20;18.20;;;2.00;99.90;;;;;;5027043;28;21077;-75
2022/12/05 07:11:17;;;;;;;19.83;17.83;;;2.00;99.90;;;;;;5023475;28;20419;-76
2022/12/05 07:13:45;;;;;;;19.02;17.20;;;2.00;99.90;;;;;;5025565;28;20429;-76
2022/12/05 07:16:12;;;;;;;18.50;16.60;;;2.10;99.90;;;;;;5017161;28;20439;-76
2022/12/05 07:18:39;;;;;;;18.40;16.70;;;2.00;99.90;;;;;;5027035;28;20919;-75
2022/12/05 07:21:08;;;;;;;20.35;18.25;;;2.00;99.90;;;;;;5025646;28;20905;-77
2022/12/05 07:23:35;;;;;;;17.35;15.55;;;2.00;99.90;;;;;;5018319;28;20464;-76
2022/12/05 07:26:06;;;;;;;16.40;14.70;;;2.10;99.90;;;;;;5027123;28;20451;-76
2022/12/05 07:28:32;;;;;;;16.45;14.85;;;2.10;99.90;;;;;;5028234;28;20436;-76
2022/12/05 07:31:01;;;;;;;16.35;14.70;;;2.20;99.90;;;;;;5028444;28;20524;-78
2022/12/05 07:33:28;;;;;;;16.08;14.48;;;2.20;99.90;;;;;;5028069;28;20510;-78
2022/12/05 07:36:00;;;;;;;17.43;15.63;;;2.20;99.90;;;;;;5024693;28;20439;-76
2022/12/05 07:38:27;;;;;;;16.15;14.55;;;2.20;99.90;;;;;;5021168;28;20450;-77
2022/12/05 07:40:54;;;;;;;16.05;14.50;;;2.10;99.90;;;;;;5023085;28;21177;-77
2022/12/05 07:43:21;;;;;;;13.88;12.57;;;2.20;99.90;;;;;;5021097;28;20491;-76
2022/12/05 07:45:47;;;;;;;13.50;12.20;;;2.20;99.90;;;;;;5023764;28;20444;-76
2022/12/05 07:48:16;;;;;;;16.30;14.60;;;2.20;99.90;;;;;;5013489;28;20445;-76
2022/12/05 07:50:42;;;;;;;17.40;15.65;;;2.20;99.90;;;;;;5020423;28;20426;-76
2022/12/05 07:53:09;;;;;;;17.63;15.93;;;2.20;99.90;;;;;;5025901;28;20905;-77
2022/12/05 07:55:38;;;;;;;18.20;16.30;;;2.20;99.90;;;;;;5024093;28;20434;-77
2022/12/05 07:58:04;;;;;;;19.17;17.17;;;2.20;99.90;;;;;;5022645;28;20504;-76
2022/12/05 08:00:31;;;;;;;19.30;17.20;;;2.20;99.90;;;;;;5025044;28;20514;-77
2022/12/05 08:02:58;;;;;;;17.98;16.17;;;2.20;99.90;;;;;;5026585;28;20435;-78
2022/12/05 08:05:26;;;;;;;19.23;17.33;;;2.20;99.90;;;;;;5023921;28;20446;-78
2022/12/05 08:07:53;;;;;;;18.23;16.42;;;2.20;99.90;;;;;;5034254;28;20434;-80
2022/12/05 08:10:20;;;;;;;18.52;16.52;;;2.20;99.90;;;;;;5034851;28;20430;-81
2022/12/05 08:12:46;;;;;;;18.85;16.58;;;2.20;99.90;;;;;;5029773;28;20442;-79
2022/12/05 08:15:13;;;;;;;19.10;17.10;;;2.20;99.90;;;;;;5027104;28;20442;-77
2022/12/05 08:17:40;;;;;;;18.58;16.42;;;2.20;99.90;;;;;;5025401;28;20913;-79
2022/12/05 08:20:08;;;;;;;19.10;16.48;;;2.20;99.90;;;;;;5027744;28;20439;-79
2022/12/05 08:22:36;;;;;;;20.15;18.05;;;2.20;99.90;;;;;;5024561;28;20429;-79
2022/12/05 08:25:03;;;;;;;20.67;18.55;;;2.20;99.90;;;;;;5022812;28;20429;-79
2022/12/05 08:27:29;;;;;;;18.65;16.65;;;2.30;99.90;;;;;;5023297;28;20421;-81
2022/12/05 08:29:56;;;;;;;19.87;17.77;;;2.30;99.90;;;;;;5027781;28;20426;-79
2022/12/05 08:32:23;;;;;;;19.42;17.50;;;2.30;99.90;;;;;;5031697;28;20812;-79
2022/12/05 08:34:50;;;;;;;18.73;16.73;;;2.30;99.90;;;;;;5027666;28;20434;-78
2022/12/05 08:37:16;;;;;;;20.17;18.10;;;2.40;99.90;;;;;;5033033;28;20435;-78
2022/12/05 08:39:44;;;;;;;21.08;18.60;;;2.30;99.90;;;;;;5033873;28;20430;-77
2022/12/05 08:42:11;;;;;;;20.50;17.80;;;2.30;99.90;;;;;;5027875;28;20445;-78
2022/12/05 08:44:38;;;;;;;20.52;18.33;;;2.30;99.90;;;;;;5033910;28;20430;-77
2022/12/05 08:47:05;;;;;;;19.85;17.85;;;2.30;99.90;;;;;;5034526;28;20425;-77
2022/12/05 08:49:32;;;;;;;20.25;17.70;;;2.30;99.90;;;;;;5036059;28;20799;-78
2022/12/05 08:51:58;;;;;;;20.58;18.52;;;2.40;99.90;;;;;;5028163;28;20761;-78
2022/12/05 08:54:25;;;;;;;19.80;17.80;;;2.40;99.90;;;;;;5040868;28;20434;-79
2022/12/05 08:56:53;;;;;;;19.50;17.60;;;2.50;99.90;;;;;;5041233;28;20434;-79
2022/12/05 08:59:20;;;;;;;19.20;17.37;;;2.50;99.90;;;;;;5040234;28;20431;-78
2022/12/05 09:01:50;;;;;;;19.70;17.70;;;2.50;99.90;;;;;;5033153;28;20439;-77
2022/12/05 09:04:17;;;;;;;19.60;17.70;;;2.50;99.90;;;;;;5031176;28;20443;-78
2022/12/05 09:06:43;;;;;;;20.42;18.33;;;2.50;99.90;;;;;;5021579;28;20496;-78
2022/12/05 09:09:11;;;;;;;20.40;18.30;;;2.50;99.90;;;;;;5028312;28;20445;-77
2022/12/05 09:11:44;;;;;;;20.83;18.73;;;2.50;99.90;;;;;;5032938;28;20438;-78
2022/12/05 09:14:13;;;;;;;20.30;18.20;;;2.60;99.90;;;;;;5028262;28;20442;-79
2022/12/05 09:16:40;;;;;;;21.30;19.20;;;2.60;99.90;;;;;;5028588;28;20500;-79
2022/12/05 09:19:12;;;;;;;21.42;19.33;;;2.60;99.90;;;;;;5030599;28;20449;-80
2022/12/05 09:21:40;;;;;;;20.90;18.70;;;2.60;99.90;;;;;;5028747;28;20531;-80
2022/12/05 09:24:07;;;;;;;19.27;17.33;;;2.60;99.90;;;;;;5029638;28;20446;-79
2022/12/05 09:26:33;;;;;;;17.80;16.10;;;2.70;99.90;;;;;;5034466;28;20426;-79
2022/12/05 09:29:02;;;;;;;18.20;16.50;;;2.70;99.90;;;;;;5033612;28;20435;-79
2022/12/05 09:31:30;;;;;;;18.63;16.73;;;2.70;99.90;;;;;;5028606;28;20434;-79
2022/12/05 09:33:57;;;;;;;19.27;17.38;;;2.70;99.90;;;;;;5028664;28;20434;-79
2022/12/05 09:36:25;;;;;;;20.77;18.67;;;2.70;99.90;;;;;;5041032;28;20527;-79
2022/12/05 09:38:53;;;;;;;19.27;17.48;;;2.70;99.90;;;;;;5029029;28;20434;-80
2022/12/05 09:44:27;;;;;;;19.75;17.75;;;2.70;99.90;;;;;;5029859;28;20788;-78
2022/12/05 09:46:59;;;;;;;20.10;18.10;;;2.70;99.90;;;;;;5030480;28;20533;-78
2022/12/05 09:49:27;;;;;;;19.98;18.08;;;2.70;99.90;;;;;;5030501;28;20434;-77
2022/12/05 09:51:55;;;;;;;19.75;17.95;;;2.80;99.90;;;;;;5018999;28;20447;-78
2022/12/05 09:54:23;;;;;;;20.90;18.60;;;2.80;99.90;;;;;;5030156;28;20521;-77
2022/12/05 09:56:51;;;;;;;19.90;18.00;;;2.70;99.90;;;;;;5022942;28;20576;-77
2022/12/05 09:59:20;;;;;;;20.60;18.60;;;2.80;99.90;;;;;;5021901;28;20517;-77
2022/12/05 10:01:53;;;;;;;21.23;19.13;;;2.80;99.90;;;;;;5029773;28;20971;-76
2022/12/05 10:04:33;;;;;;;21.95;19.85;;;2.80;99.90;;;;;;5023278;28;20465;-77
2022/12/05 10:07:07;;;;;;;21.95;19.85;;;2.80;99.90;;;;;;5028884;28;20533;-76
2022/12/05 10:09:47;;;;;;;21.05;18.95;;;2.80;99.90;;;;;;5030166;28;20815;-77
2022/12/05 10:12:24;;;;;;;22.40;20.10;;;2.80;99.90;;;;;;5032002;28;21019;-78
2022/12/05 10:15:01;;;;;;;22.25;20.13;;;2.90;99.90;;;;;;5029027;28;20511;-77
2022/12/05 10:17:32;;;;;;;21.50;19.20;;;2.90;99.90;;;;;;5020731;28;20441;-77
2022/12/05 10:20:04;;;;;;;22.50;20.30;;;2.90;99.90;;;;;;5035959;28;20442;-77
2022/12/05 10:22:38;;;;;;;21.10;19.00;;;2.90;99.90;;;;;;5030386;28;20450;-77
2022/12/05 10:25:07;;;;;;;20.40;18.30;;;2.90;99.90;;;;;;5028185;28;20471;-76
2022/12/05 10:27:38;;;;;;;17.75;16.15;;;2.90;99.90;;;;;;5025613;28;20534;-77
2022/12/05 10:30:12;;;;;;;20.27;18.42;;;2.90;99.90;;;;;;5028794;28;20445;-77
2022/12/05 10:32:49;;;;;;;16.52;15.13;;;2.90;99.90;;;;;;5029669;28;20435;-76
2022/12/05 10:35:20;;;;;;;15.63;14.32;;;3.00;99.90;;;;;;5022273;28;20431;-76
2022/12/05 10:37:51;;;;;;;15.65;14.25;;;3.00;99.90;;;;;;5025524;28;20446;-78
2022/12/05 10:40:18;;;;;;;15.80;14.35;;;3.00;99.90;;;;;;5028409;28;20435;-77
2022/12/05 10:42:46;;;;;;;15.02;13.82;;;3.10;99.90;;;;;;5034255;28;20810;-77
2022/12/05 10:45:17;;;;;;;14.35;13.15;;;3.00;99.90;;;;;;5021226;28;20438;-63
2022/12/05 10:47:45;;;;;;;15.93;14.52;;;3.00;99.90;;;;;;5026598;28;20433;-64
2022/12/05 10:50:24;;;;;;;17.25;15.75;;;3.00;99.90;;;;;;5021881;28;20449;-77
2022/12/05 10:52:52;;;;;;;17.42;15.82;;;3.00;99.90;;;;;;5030228;28;20436;-75
2022/12/05 10:55:20;;;;;;;17.80;16.10;;;3.00;99.90;;;;;;5023131;28;20430;-76
2022/12/05 10:57:50;;;;;;;18.40;16.80;;;3.00;99.90;;;;;;5024123;28;20431;-76
2022/12/05 11:00:22;;;;;;;19.80;18.10;;;3.10;99.90;;;;;;5021119;28;20435;-76
2022/12/05 11:02:49;;;;;;;18.77;17.08;;;3.10;99.90;;;;;;5026642;28;20742;-76
2022/12/05 11:05:29;;;;;;;19.48;17.77;;;3.20;99.90;;;;;;5028906;28;20932;-76
2022/12/05 11:07:57;;;;;;;19.13;17.40;;;3.20;99.90;;;;;;5026319;28;20431;-76
2022/12/05 11:10:27;;;;;;;21.17;19.27;;;3.20;99.90;;;;;;5027416;28;20442;-76
2022/12/05 11:12:56;;;;;;;18.88;17.17;;;3.20;99.90;;;;;;5027632;28;20430;-76
2022/12/05 11:15:25;;;;;;;17.75;16.25;;;3.20;99.90;;;;;;5027601;28;20434;-76
2022/12/05 11:17:53;;;;;;;16.60;15.10;;;3.20;99.90;;;;;;5026319;28;20435;-76
2022/12/05 11:20:40;;;;;;;14.90;13.57;;;3.20;99.90;;;;;;5016259;28;20538;-76
2022/12/05 11:23:23;;;;;;;14.90;13.60;;;3.20;99.90;;;;;;5029106;28;20510;-75
2022/12/05 11:25:50;;;;;;;13.53;12.43;;;3.10;99.90;;;;;;5028209;28;20540;-76
2022/12/05 11:28:31;;;;;;;13.20;12.10;;;3.10;99.90;;;;;;5031644;28;20432;-75
2022/12/05 11:31:00;;;;;;;13.97;12.77;;;3.10;99.90;;;;;;5026739;28;20575;-74
2022/12/05 11:33:28;;;;;;;13.45;12.30;;;3.10;99.90;;;;;;5045003;28;20436;-75
2022/12/05 11:36:02;;;;;;;14.73;13.43;;;3.10;99.90;;;;;;5033177;28;20442;-74
2022/12/05 11:38:31;;;;;;;14.50;13.20;;;3.10;99.90;;;;;;5034910;28;20433;-74
2022/12/05 11:41:12;;;;;;;15.47;14.07;;;3.10;99.90;;;;;;5051177;28;20483;-74
2022/12/05 11:43:53;;;;;;;15.27;13.88;;;3.10;99.90;;;;;;5028532;28;20921;-74
2022/12/05 11:46:26;;;;;;;15.90;14.50;;;3.10;99.90;;;;;;5026838;28;20439;-74
2022/12/05 11:49:05;;;;;;;16.20;14.80;;;3.10;99.90;;;;;;5041202;28;20421;-74
2022/12/05 11:51:39;;;;;;;18.40;16.77;;;3.10;99.90;;;;;;5047024;28;20438;-75
2022/12/05 11:54:30;;;;;;;17.35;15.75;;;3.10;99.90;;;;;;5046516;28;20475;-75
2022/12/05 11:57:02;;;;;;;18.13;16.52;;;3.00;99.90;;;;;;5037738;28;20438;-73
2022/12/05 11:59:47;;;;;;;18.48;16.88;;;3.00;99.90;;;;;;5033911;28;20491;-73
2022/12/05 12:02:28;;;;;;;18.10;16.50;;;3.00;99.90;;;;;;5026238;28;20438;-75
2022/12/05 12:05:00;;;;;;;20.25;18.35;;;3.00;99.90;;;;;;5029839;28;20796;-74
2022/12/05 12:07:56;;;;;;;19.52;17.63;;;3.00;99.90;;;;;;5028089;28;20438;-74
2022/12/05 12:10:30;;;;;;;19.77;17.88;;;3.00;99.90;;;;;;5023705;28;20454;-74
2022/12/05 12:13:12;;;;;;;20.13;18.23;;;3.00;99.90;;;;;;5021363;28;20427;-74
2022/12/05 12:15:52;;;;;;;21.35;19.35;;;3.00;99.90;;;;;;5022191;28;20436;-75
2022/12/05 12:18:37;;;;;;;20.52;18.63;;;2.90;99.90;;;;;;5024238;28;20431;-74
2022/12/05 12:21:17;;;;;;;19.90;17.97;;;3.00;99.90;;;;;;5025653;28;20462;-72
2022/12/05 12:23:59;;;;;;;19.10;17.30;;;3.00;99.90;;;;;;5022359;28;20902;-73
2022/12/05 12:26:41;;;;;;;19.55;17.65;;;3.00;99.90;;;;;;5020616;28;20473;-74
2022/12/05 12:29:18;;;;;;;19.75;17.95;;;3.00;99.90;;;;;;5027105;28;20454;-72
2022/12/05 12:31:55;;;;;;;23.35;21.05;;;3.00;99.90;;;;;;5026883;28;20867;-74
2022/12/05 12:34:41;;;;;;;22.38;20.27;;;3.10;99.90;;;;;;5025673;28;20453;-74
2022/12/05 12:37:19;;;;;;;20.15;18.35;;;3.10;99.90;;;;;;5026609;28;20521;-75
2022/12/05 12:39:52;;;;;;;20.52;18.63;;;3.10;99.90;;;;;;5025973;28;20441;-75
2022/12/05 12:42:26;;;;;;;19.95;18.05;;;3.20;99.90;;;;;;5028035;28;20434;-75
2022/12/05 12:45:15;;;;;;;22.08;19.98;;;3.20;99.90;;;;;;5021891;28;20432;-75
2022/12/05 12:48:03;;;;;;;19.08;17.38;;;3.20;99.90;;;;;;5026014;28;20415;-75
2022/12/05 12:50:32;;;;;;;18.73;17.08;;;3.30;99.90;;;;;;5011803;28;20489;-75
2022/12/05 12:53:22;;;;;;;18.10;16.40;;;3.40;99.90;;;;;;5021208;28;20445;-75
2022/12/05 12:56:00;;;;;;;19.20;17.50;;;3.40;99.90;;;;;;5023376;28;20938;-75
2022/12/05 12:58:42;;;;;;;18.48;16.83;;;3.50;99.90;;;;;;5026949;28;20428;-75
2022/12/05 13:01:16;;;;;;;16.83;15.43;;;3.40;99.90;;;;;;5024366;28;20893;-75
2022/12/05 13:03:49;;;;;;;16.42;15.02;;;3.40;99.90;;;;;;5023469;28;20430;-75
2022/12/05 13:06:21;;;;;;;16.42;15.02;;;3.40;99.90;;;;;;5029089;28;20441;-75